Latest Coastal Weather Observations for Ngayawili (Elcho Island)

IDD60701

Issued at 7:15 pm CST Friday 28 November 2014 (issued every 10 minutes, with the page automatically refreshed every 10 minutes)

About coastal observations | Map of coastal stations | Coastal observations for NT | Marine services | Other Formats
Station Details ID: 014517 Name: NGAYAWILI Lat: -12.00 Lon: 135.57 Height: 8.1 m
Data from the previous 72 hours. | See also: Recent months at Ngayawili (Elcho Island)
Date/Time
CST
Temp

°C
Wind Pressure Rain
since 9am
mm
Weather Cloud Vis
km
Sea
Height
m
Swell
Dir
 
Speed
knots
Gust
knots
hPa Trend Height
m
Period
s
Dir
28/07:00pm 28.9 NNE 7 12 1012.2 - 0.0 - - - - - - -
28/06:30pm 29.2 NNE 9 14 1014.3 - 0.0 - - - - - - -
28/06:00pm 30.0 NE 8 12 1005.9 - 0.0 - - - - - - -
28/05:30pm 30.2 NNE 12 16 1011.6 - 0.0 - - - - - - -
28/05:00pm 30.9 N 13 15 1005.8 - 0.0 - - - - - - -
28/04:30pm 31.2 N 14 17 1005.4 - 0.0 - - - - - - -
28/04:00pm 31.9 N 14 17 1006.0 - 0.0 - - - - - - -
28/03:30pm 31.5 N 11 15 1011.2 - 0.0 - - - - - - -
28/03:00pm 32.1 N 13 15 1005.3 - 0.0 - - - - - - -
28/02:30pm 32.1 N 14 17 1010.9 - 0.0 - - - - - - -
28/02:00pm 32.0 N 14 18 1006.0 - 0.0 - - - - - - -
28/01:30pm 31.0 N 12 15 1010.4 - 0.0 - - - - - - -
28/01:00pm 32.2 N 12 14 1008.5 - 0.0 - - - - - - -
28/12:30pm 31.6 N 13 16 1010.8 - 0.0 - - - - - - -
28/12:00pm 32.1 N 11 14 1010.8 - 0.0 - - - - - - -
28/11:30am 31.4 N 13 16 1010.1 - 0.0 - - - - - - -
28/11:00am 32.3 N 12 16 1010.1 - 0.0 - - - - - - -
28/10:30am 31.3 N 12 15 1009.9 - 0.0 - - - - - - -
28/10:00am 31.8 N 10 14 1010.4 - 0.0 - - - - - - -
28/09:30am 30.9 N 9 13 1010.2 - 0.0 - - - - - - -
28/09:00am 30.4 N 9 13 1010.9 - 0.0 - - - - - - -
28/08:30am 30.2 N 9 13 1010.2 - 0.0 - - - - - - -
28/08:00am 29.8 NNE 8 11 1010.2 - 0.0 - - - - - - -
28/07:30am 27.8 NE 4 6 1010.0 - 0.0 - - - - - - -
28/07:00am 26.8 NE 4 5 1009.7 - 0.0 - - - - - - -
28/06:30am 25.6 NE 4 5 1009.8 - 0.0 - - - - - - -
28/06:00am 25.5 NE 5 6 1009.5 - 0.0 - - - - - - -
28/05:30am 25.1 NE 5 5 1009.5 - 0.0 - - - - - - -
28/05:00am 25.2 NE 4 5 1007.8 - 0.0 - - - - - - -
28/04:30am 25.1 NE 4 5 1009.5 - 0.0 - - - - - - -
28/04:00am 25.7 NE 4 5 1008.3 - 0.0 - - - - - - -
28/03:30am 26.1 NE 4 6 1009.6 - 0.0 - - - - - - -
28/03:00am 26.1 NE 4 5 1007.5 - 0.0 - - - - - - -
28/02:30am 26.2 NE 4 5 1008.8 - 0.0 - - - - - - -
28/02:00am 26.6 NE 4 5 1007.7 - 0.0 - - - - - - -
28/01:30am 27.0 NE 3 4 1009.5 - 0.0 - - - - - - -
28/01:00am 27.4 NE 5 7 1009.5 - 0.0 - - - - - - -
28/12:30am 27.6 ENE 5 7 1009.8 - 0.0 - - - - - - -
28/12:00am 27.9 NE 5 8 1010.0 - 0.0 - - - - - - -
 
Date/Time
CST
Temp

°C
Wind Pressure Rain
since 9am
mm
Weather Cloud Vis
km
Sea
Height
m
Swell
Dir
 
Speed
knots
Gust
knots
hPa Trend Height
m
Period
s
Dir
27/11:30pm 27.9 NE 5 8 1010.1 - 0.0 - - - - - - -
27/11:00pm 27.7 NE 4 6 1010.1 - 0.0 - - - - - - -
27/10:30pm 28.1 NE 4 7 1010.4 - 0.0 - - - - - - -
27/10:00pm 28.2 NE 7 11 1010.0 - 0.0 - - - - - - -
27/09:30pm 27.9 NE 4 7 1009.8 - 0.0 - - - - - - -
27/09:00pm 28.0 ENE 6 8 1009.7 - 0.0 - - - - - - -
27/08:30pm 28.2 ENE 5 7 1009.8 - 0.0 - - - - - - -
27/08:00pm 28.5 ENE 6 9 1009.9 - 0.0 - - - - - - -
27/07:30pm 28.7 ENE 6 11 1009.9 - 0.0 - - - - - - -
27/07:00pm 29.1 ENE 6 10 1010.0 - 0.0 - - - - - - -
27/06:30pm 29.5 NE 8 13 1010.0 - 0.0 - - - - - - -
27/06:00pm 30.0 NE 10 16 1009.7 - 0.0 - - - - - - -
27/05:30pm 30.9 NNE 12 17 1010.0 - 0.0 - - - - - - -
27/05:00pm 31.5 NNE 14 19 1010.2 - 0.0 - - - - - - -
27/04:30pm 31.5 NNE 14 19 1010.7 - 0.0 - - - - - - -
27/04:00pm 31.6 N 17 21 1011.0 - 0.0 - - - - - - -
27/03:30pm 32.6 N 15 19 1011.3 - 0.0 - - - - - - -
27/03:00pm 32.4 N 16 19 1011.2 - 0.0 - - - - - - -
27/02:30pm 32.6 N 16 21 1010.9 - 0.0 - - - - - - -
27/02:00pm 32.2 N 16 19 1011.5 - 0.0 - - - - - - -
27/01:30pm 32.0 N 15 21 1011.8 - 0.0 - - - - - - -
27/01:00pm 30.7 N 18 21 1012.3 - 0.0 - - - - - - -
27/12:30pm 33.2 N 15 20 1012.2 - 0.0 - - - - - - -
27/12:00pm 32.2 N 13 16 1012.2 - 0.0 - - - - - - -
27/11:30am 32.5 N 12 17 1012.2 - 0.0 - - - - - - -
27/11:00am 31.7 N 11 15 1012.4 - 0.0 - - - - - - -
27/10:30am 33.3 N 9 16 1011.3 - 0.0 - - - - - - -
27/10:00am 31.5 NNE 8 11 1011.6 - 0.0 - - - - - - -
27/09:30am 31.5 NE 6 12 1011.2 - 0.0 - - - - - - -
27/09:00am 31.6 ENE 8 14 1011.3 - 0.0 - - - - - - -
27/08:30am 30.4 NE 6 10 1011.4 - 0.0 - - - - - - -
27/08:00am 28.5 E 4 6 1011.3 - 0.0 - - - - - - -
27/07:30am 27.5 ENE 5 6 1011.1 - 0.0 - - - - - - -
27/07:00am 25.8 ENE 4 5 1010.8 - 0.0 - - - - - - -
27/06:30am 24.6 ENE 4 5 1010.8 - 0.0 - - - - - - -
27/06:00am 24.0 ENE 4 5 1010.6 - 0.0 - - - - - - -
27/05:30am 23.7 ENE 4 5 1010.4 - 0.0 - - - - - - -
27/05:00am 23.8 ENE 3 4 1010.4 - 0.0 - - - - - - -
27/04:30am 24.0 ENE 4 5 1010.2 - 0.0 - - - - - - -
27/04:00am 24.1 ENE 4 4 1010.0 - 0.0 - - - - - - -
27/03:30am 24.3 ENE 4 4 1009.8 - 0.0 - - - - - - -
27/03:00am 24.7 ENE 3 4 1009.7 - 0.0 - - - - - - -
27/02:30am 24.5 ENE 3 3 1009.7 - 0.0 - - - - - - -
27/02:00am 25.0 ENE 3 4 1009.7 - 0.0 - - - - - - -
27/01:30am 25.9 ENE 3 4 1009.8 - 0.0 - - - - - - -
27/01:00am 26.2 ENE 4 6 1009.5 - 0.0 - - - - - - -
27/12:30am 26.3 ENE 4 5 1009.1 - 0.0 - - - - - - -
27/12:00am 26.8 ENE 4 6 1009.1 - 0.0 - - - - - - -
 
Date/Time
CST
Temp

°C
Wind Pressure Rain
since 9am
mm
Weather Cloud Vis
km
Sea
Height
m
Swell
Dir
 
Speed
knots
Gust
knots
hPa Trend Height
m
Period
s
Dir
26/11:30pm 26.8 ENE 5 6 1010.0 - 0.0 - - - - - - -
26/11:00pm 26.8 ENE 4 5 1011.4 - 0.0 - - - - - - -
26/10:30pm 27.2 ENE 4 5 1012.3 - 0.0 - - - - - - -
26/10:00pm 27.6 NE 4 6 1012.1 - 0.0 - - - - - - -
26/09:30pm 27.9 NE 6 10 1012.6 - 0.0 - - - - - - -
26/09:00pm 28.0 ENE 5 7 1013.7 - 0.0 - - - - - - -
26/08:30pm 27.8 ENE 5 7 1012.8 - 0.0 - - - - - - -
26/08:00pm 28.1 ENE 4 6 1013.0 - 0.0 - - - - - - -
26/07:30pm 28.6 ENE 4 6 1011.9 - 0.0 - - - - - - -
26/07:00pm 29.3 ENE 6 8 1011.2 - 0.0 - - - - - - -
26/06:30pm 29.9 NE 7 11 1011.0 - 0.0 - - - - - - -
26/06:00pm 30.8 NE 9 14 1009.9 - 0.0 - - - - - - -
26/05:30pm 31.4 NE 11 15 1008.9 - 0.0 - - - - - - -
26/05:00pm 32.0 NNE 11 17 1010.1 - 0.0 - - - - - - -
26/04:30pm 32.6 NNE 12 19 1010.9 - 0.0 - - - - - - -
26/04:00pm 33.9 NNE 13 19 1011.1 - 0.0 - - - - - - -
26/03:30pm 33.4 NE 12 18 1012.6 - 0.0 - - - - - - -
26/03:00pm 33.8 NNE 13 22 1012.7 - 0.0 - - - - - - -
26/02:30pm 33.7 NNE 15 20 1012.2 - 0.0 - - - - - - -
26/02:00pm 33.8 NNE 14 20 1012.3 - 0.0 - - - - - - -
26/01:30pm 32.5 NNE 14 20 1012.1 - 0.0 - - - - - - -
26/01:00pm 32.6 NNE 15 19 1012.5 - 0.0 - - - - - - -
26/12:30pm 33.8 N 15 21 1012.5 - 0.0 - - - - - - -
26/12:00pm 32.8 NNE 12 19 1012.6 - 0.0 - - - - - - -
26/11:30am 32.0 NNE 12 17 1013.2 - 0.0 - - - - - - -
26/11:00am 31.7 NNE 11 18 1013.2 - 0.0 - - - - - - -
26/10:30am 31.5 NNE 12 17 1013.2 - 0.0 - - - - - - -
26/10:00am 31.5 ENE 9 14 1013.4 - 0.0 - - - - - - -
26/09:30am 31.3 ENE 9 15 1013.6 - 0.0 - - - - - - -
26/09:00am 30.1 E 4 6 1015.3 - 0.0 - - - - - - -
26/08:30am 29.6 NE 4 6 1013.8 - 0.0 - - - - - - -
26/08:00am 28.1 NE 4 5 1013.9 - 0.0 - - - - - - -
26/07:30am 26.8 NE 3 5 1014.1 - 0.0 - - - - - - -
26/07:00am 25.3 NE 4 5 1013.9 - 0.0 - - - - - - -
26/06:30am 24.6 NE 4 5 1013.9 - 0.0 - - - - - - -
26/06:00am 24.1 NE 4 5 1013.7 - 0.0 - - - - - - -
26/05:30am 23.9 NE 4 4 1013.7 - 0.0 - - - - - - -
26/05:00am 24.1 NE 3 4 1013.6 - 0.0 - - - - - - -
26/04:30am 24.3 NE 3 4 1013.8 - 0.0 - - - - - - -
26/04:00am 24.6 NE 4 5 1013.9 - 0.0 - - - - - - -
26/03:30am 24.4 NE 4 4 1013.9 - 0.0 - - - - - - -
26/03:00am 24.7 NE 4 4 1014.1 - 0.0 - - - - - - -
26/02:30am 24.7 NE 3 3 1014.4 - 0.0 - - - - - - -
26/02:00am 25.3 NE 4 4 1014.6 - 0.0 - - - - - - -
26/01:30am 25.6 NE 4 5 1014.8 - 0.0 - - - - - - -
26/01:00am 26.2 NE 4 5 1015.1 - 0.0 - - - - - - -
26/12:30am 26.1 NE 5 6 1015.3 - 0.0 - - - - - - -
26/12:00am 26.4 NE 4 5 1015.2 - 0.0 - - - - - - -
 
Date/Time
CST
Temp

°C
Wind Pressure Rain
since 9am
mm
Weather Cloud Vis
km
Sea
Height
m
Swell
Dir
 
Speed
knots
Gust
knots
hPa Trend Height
m
Period
s
Dir
25/11:30pm 26.9 NE 4 6 1015.3 - 0.0 - - - - - - -
25/11:00pm 27.0 NNE 5 7 1015.4 - 0.0 - - - - - - -
25/10:30pm 27.0 NNE 4 7 1015.1 - 0.0 - - - - - - -
25/10:00pm 27.2 NNE 4 6 1015.0 - 0.0 - - - - - - -
25/09:30pm 27.3 NNE 4 6 1014.9 - 0.0 - - - - - - -
25/09:00pm 27.4 NNE 4 5 1015.1 - 0.0 - - - - - - -
25/08:30pm 27.8 NNE 4 5 1015.3 - 0.0 - - - - - - -
25/08:00pm 28.2 NNE 4 6 1015.4 - 0.0 - - - - - - -
25/07:30pm 29.0 NNE 7 10 1015.6 - 0.0 - - - - - - -

Other Formats:

Comma delimited format used in spreadsheet applications
http://www.bom.gov.au/fwo/IDD60701/IDD60701.95146.axf

JavaScript Object Notation format (JSON) in row-major order
http://www.bom.gov.au/fwo/IDD60701/IDD60701.95146.json